Terminal Aerodrome Forecast
Issued by NWS

Home | Current Version | Previous Version | Text Only | Print | Product List | Glossary Off
Versions: 1 2 3 4 5 6 7 8 9 10 11 12 13

000
FTUS45 KGGW 271732
TAFOLF
TAF
KOLF 271732Z 2718/2818 08006KT P6SM VCSH SCT015 OVC100
      TEMPO 2718/2719 BKN015
     FM272000 08006KT P6SM VCSH SCT020 OVC100
      TEMPO 2720/2721 BKN025
     FM272200 09006KT P6SM VCSH OVC045=

USA.gov is the U.S. government's official web portal to all federal, state and local government web resources and services.